Time;durP1;ratioP1;P1;durP2;ratioP2;P2;SDS_P1;SDS_P2;PMS_P1;PMS_P2;Temp;Humidity;BMP_temperature;BMP_pressure;BME280_temperature;BME280_humidity;BME280_pressure;Samples;Min_cycle;Max_cycle;Signal;HPM_P1;HPM_P2
2021/01/14 00:02:04;;;;;;;158.98;73.43;;;39.20;2201.60;;;;;;5069985;28;20111;-69
2021/01/14 00:04:32;;;;;;;147.15;67.15;;;39.00;2201.60;;;;;;5069637;28;20081;-75
2021/01/14 00:06:58;;;;;;;141.27;62.35;;;38.90;2201.60;;;;;;5068397;28;20020;-67
2021/01/14 00:09:24;;;;;;;133.57;61.15;;;38.80;2201.60;;;;;;5068630;28;20477;-69
2021/01/14 00:11:50;;;;;;;151.63;68.53;;;38.80;2201.60;;;;;;5070169;28;20372;-69
2021/01/14 00:14:15;;;;;;;170.85;74.25;;;38.80;2201.60;;;;;;5070912;28;20070;-69
2021/01/14 00:16:41;;;;;;;248.38;102.38;;;38.80;2201.60;;;;;;5070503;28;20491;-68
2021/01/14 00:19:06;;;;;;;269.90;104.80;;;39.00;2201.60;;;;;;5070359;28;20028;-70
2021/01/14 00:21:39;;;;;;;187.35;82.25;;;39.20;2201.60;;;;;;5070134;28;20039;-70
2021/01/14 00:24:05;;;;;;;171.55;73.78;;;64.10;2201.60;;;;;;5072034;28;20485;-70
2021/01/14 00:26:31;;;;;;;170.93;74.05;;;64.30;2201.60;;;;;;5071801;28;20033;-68
2021/01/14 00:28:57;;;;;;;194.73;83.45;;;64.50;2201.60;;;;;;5072333;28;20070;-70
2021/01/14 00:31:22;;;;;;;177.18;74.38;;;64.60;2201.60;;;;;;5071800;28;20358;-70
2021/01/14 00:33:48;;;;;;;173.38;74.07;;;64.70;2201.60;;;;;;5071931;28;20063;-70
2021/01/14 00:36:14;;;;;;;164.73;68.28;;;64.70;2201.60;;;;;;5071990;28;20036;-69
2021/01/14 00:38:41;;;;;;;97.00;43.50;;;64.80;2201.60;;;;;;5071749;28;20032;-67
2021/01/14 00:41:06;;;;;;;106.05;47.42;;;89.60;2201.60;;;;;;5071948;28;20401;-69
2021/01/14 00:43:32;;;;;;;110.10;48.13;;;89.70;2176.00;;;;;;5073988;28;20033;-69
2021/01/14 00:45:58;;;;;;;150.38;60.10;;;90.00;2176.00;;;;;;5075465;28;20039;-67
2021/01/14 00:48:23;;;;;;;136.52;54.05;;;90.30;2176.00;;;;;;5075422;28;20021;-69
2021/01/14 00:50:49;;;;;;;150.13;57.85;;;90.40;2176.00;;;;;;5075599;28;20032;-74
2021/01/14 00:53:15;;;;;;;145.13;56.15;;;90.50;2176.00;;;;;;5075950;28;20385;-73
2021/01/14 00:55:41;;;;;;;172.95;60.00;;;115.20;2176.00;;;;;;5075106;28;20032;-69
2021/01/14 00:58:06;;;;;;;145.88;50.00;;;115.30;2176.00;;;;;;5075343;28;20389;-68
2021/01/14 01:00:32;;;;;;;171.82;61.65;;;115.30;2176.00;;;;;;5074134;28;20059;-69
2021/01/14 01:02:57;;;;;;;167.45;58.80;;;115.50;2176.00;;;;;;5075343;28;20028;-73
2021/01/14 01:05:23;;;;;;;157.57;59.38;;;115.40;2176.00;;;;;;5074971;28;20115;-71
2021/01/14 01:07:54;;;;;;;159.30;61.33;;;115.50;2176.00;;;;;;5057321;28;20016;-72
2021/01/14 01:10:20;;;;;;;193.48;69.18;;;115.50;2176.00;;;;;;5075404;28;20142;-72
2021/01/14 01:12:53;;;;;;;245.50;85.47;;;115.50;2176.00;;;;;;5074995;28;20488;-69
2021/01/14 01:15:18;;;;;;;198.82;73.90;;;115.60;2176.00;;;;;;5075124;28;20082;-74
2021/01/14 01:17:44;;;;;;;200.98;71.50;;;115.60;2176.00;;;;;;5075108;28;20416;-69
2021/01/14 01:20:10;;;;;;;224.88;78.72;;;115.60;2176.00;;;;;;5074715;28;20036;-74
2021/01/14 01:22:36;;;;;;;228.13;81.85;;;115.60;2176.00;;;;;;5075102;28;20185;-72
2021/01/14 01:25:01;;;;;;;211.52;77.95;;;115.60;2176.00;;;;;;5074864;28;20017;-68
2021/01/14 01:27:27;;;;;;;226.35;83.20;;;115.50;2176.00;;;;;;5074981;28;20035;-68
2021/01/14 01:29:53;;;;;;;237.85;91.47;;;115.50;2176.00;;;;;;5074860;28;20021;-69
2021/01/14 01:32:18;;;;;;;216.55;81.75;;;115.30;2176.00;;;;;;5074749;28;20029;-69
2021/01/14 01:34:44;;;;;;;218.45;82.95;;;115.30;2176.00;;;;;;5074522;28;20028;-69
2021/01/14 01:37:09;;;;;;;213.35;82.63;;;115.20;2176.00;;;;;;5074961;28;20039;-69
2021/01/14 01:39:35;;;;;;;213.75;80.90;;;90.50;2176.00;;;;;;5074568;28;20021;-69
2021/01/14 01:42:01;;;;;;;210.98;87.35;;;90.40;2176.00;;;;;;5074517;28;20036;-70
2021/01/14 01:44:26;;;;;;;195.40;81.07;;;90.30;2176.00;;;;;;5074588;28;20024;-73
2021/01/14 01:46:55;;;;;;;202.65;82.32;;;90.30;2176.00;;;;;;5072771;28;20111;-69
2021/01/14 01:49:22;;;;;;;203.57;76.35;;;90.30;2176.00;;;;;;5073848;28;20089;-67
2021/01/14 01:51:47;;;;;;;188.05;71.55;;;90.50;2176.00;;;;;;5071910;28;20040;-68
2021/01/14 01:54:13;;;;;;;245.35;88.75;;;115.30;2176.00;;;;;;5043796;28;20020;-69
2021/01/14 01:56:41;;;;;;;250.18;89.70;;;115.50;2176.00;;;;;;5070135;28;20040;-73
2021/01/14 01:59:07;;;;;;;211.77;86.13;;;115.50;2176.00;;;;;;5072325;28;20036;-74
2021/01/14 02:01:35;;;;;;;172.88;64.03;;;115.70;2176.00;;;;;;5069868;28;20481;-73
2021/01/14 02:04:00;;;;;;;151.77;56.38;;;115.70;2176.00;;;;;;5044722;28;20454;-70
2021/01/14 02:06:26;;;;;;;153.07;57.65;;;115.80;2176.00;;;;;;5070834;28;20047;-73
2021/01/14 02:08:59;;;;;;;148.80;55.40;;;115.70;2176.00;;;;;;5072204;28;20056;-69
2021/01/14 02:11:28;;;;;;;145.55;52.72;;;115.80;2176.00;;;;;;5070057;28;20029;-71
2021/01/14 02:13:53;;;;;;;116.57;45.05;;;115.70;2176.00;;;;;;5071749;28;20021;-68
2021/01/14 02:16:19;;;;;;;123.13;47.80;;;115.60;2176.00;;;;;;5072131;28;20055;-72
2021/01/14 02:18:44;;;;;;;109.20;44.83;;;115.50;2176.00;;;;;;5065850;28;20112;-68
2021/01/14 02:21:13;;;;;;;88.40;33.63;;;115.60;2176.00;;;;;;5071338;28;20053;-76
2021/01/14 02:24:03;;;;;;;79.38;32.17;;;115.90;2176.00;;;;;;5072048;28;20043;-71
2021/01/14 02:26:29;;;;;;;88.30;34.60;;;116.10;2176.00;;;;;;5072109;28;20025;-77
2021/01/14 02:28:55;;;;;;;83.22;34.90;;;140.80;2176.00;;;;;;5071516;28;20049;-78
2021/01/14 02:31:22;;;;;;;103.88;36.97;;;140.80;2176.00;;;;;;5051548;28;20059;-71
2021/01/14 02:33:55;;;;;;;80.55;31.58;;;140.80;2176.00;;;;;;5071582;28;20112;-71
2021/01/14 02:36:24;;;;;;;69.13;29.15;;;140.90;2176.00;;;;;;5068898;28;20032;-71
2021/01/14 02:38:50;;;;;;;92.03;32.63;;;141.20;2176.00;;;;;;5040522;28;20123;-76
2021/01/14 02:41:15;;;;;;;79.47;32.58;;;141.40;2176.00;;;;;;5072399;28;20560;-70
2021/01/14 02:43:42;;;;;;;85.75;31.85;;;141.50;2176.00;;;;;;5072088;28;20396;-76
2021/01/14 02:46:08;;;;;;;92.75;33.47;;;141.50;2176.00;;;;;;5072787;28;20021;-68
2021/01/14 02:49:01;;;;;;;94.38;35.90;;;141.40;2176.00;;;;;;5072471;28;20021;-73
2021/01/14 02:51:48;;;;;;;83.75;31.90;;;141.40;2176.00;;;;;;5072514;28;20232;-72
2021/01/14 02:54:14;;;;;;;80.65;31.05;;;141.40;2176.00;;;;;;5072288;28;20096;-72
2021/01/14 02:56:40;;;;;;;99.75;36.20;;;141.40;2176.00;;;;;;5070647;28;20481;-72
2021/01/14 02:59:06;;;;;;;164.50;49.88;;;141.40;2176.00;;;;;;5072913;28;20034;-75
2021/01/14 03:01:32;;;;;;;256.33;78.03;;;141.40;2176.00;;;;;;5071490;28;20017;-74
2021/01/14 03:03:58;;;;;;;164.18;52.83;;;141.40;2176.00;;;;;;5072215;28;20104;-72
2021/01/14 03:06:24;;;;;;;166.70;55.75;;;141.40;2176.00;;;;;;5071033;28;20573;-71
2021/01/14 03:08:49;;;;;;;88.35;33.20;;;141.40;2176.00;;;;;;5072689;28;20016;-76
2021/01/14 03:11:16;;;;;;;82.07;30.00;;;141.30;2176.00;;;;;;5071431;28;20024;-68
2021/01/14 03:13:42;;;;;;;125.18;37.42;;;141.30;2176.00;;;;;;5072544;28;20099;-69
2021/01/14 03:16:08;;;;;;;81.82;29.38;;;141.20;2176.00;;;;;;5072790;28;20120;-68
2021/01/14 03:18:33;;;;;;;83.70;30.00;;;141.20;2176.00;;;;;;5072561;28;20032;-68
2021/01/14 03:20:59;;;;;;;148.02;40.70;;;141.20;2176.00;;;;;;5072324;28;20097;-68
2021/01/14 03:23:24;;;;;;;147.23;40.38;;;141.10;2176.00;;;;;;5072546;28;20093;-68
2021/01/14 03:25:50;;;;;;;132.60;36.88;;;141.10;2176.00;;;;;;5072642;28;20021;-68
2021/01/14 03:28:16;;;;;;;129.95;37.58;;;141.00;2176.00;;;;;;5072416;28;20028;-69
2021/01/14 03:30:41;;;;;;;118.78;36.15;;;141.00;2176.00;;;;;;5072177;28;20031;-69
2021/01/14 03:33:07;;;;;;;94.40;32.65;;;141.00;2176.00;;;;;;5072567;28;20485;-68
2021/01/14 03:35:33;;;;;;;107.13;37.95;;;141.00;2176.00;;;;;;5072380;28;20044;-68
2021/01/14 03:37:58;;;;;;;83.97;32.65;;;141.00;2176.00;;;;;;5072305;28;20512;-69
2021/01/14 03:40:24;;;;;;;94.82;34.85;;;140.90;2176.00;;;;;;5071955;28;20023;-69
2021/01/14 03:42:49;;;;;;;99.43;35.15;;;140.80;2176.00;;;;;;5072159;28;20017;-74
2021/01/14 03:45:15;;;;;;;107.78;38.30;;;140.80;2176.00;;;;;;5072329;28;20051;-68
2021/01/14 03:47:41;;;;;;;125.10;45.47;;;140.80;2176.00;;;;;;5072158;28;20024;-68
2021/01/14 03:50:07;;;;;;;104.53;42.40;;;140.90;2176.00;;;;;;5072241;28;20025;-68
2021/01/14 03:52:33;;;;;;;78.82;33.42;;;140.90;2176.00;;;;;;5072193;28;20036;-69
2021/01/14 03:54:59;;;;;;;68.22;29.52;;;140.80;2176.00;;;;;;5072240;28;20103;-69
2021/01/14 03:57:24;;;;;;;72.55;30.23;;;140.80;2176.00;;;;;;5072042;28;20103;-69
2021/01/14 03:59:50;;;;;;;66.30;29.30;;;116.10;2176.00;;;;;;5072191;28;20032;-69
2021/01/14 04:02:16;;;;;;;57.20;25.80;;;116.00;2176.00;;;;;;5072028;28;20510;-68
2021/01/14 04:04:42;;;;;;;54.58;22.80;;;115.90;2176.00;;;;;;5071849;28;20028;-72
2021/01/14 04:07:12;;;;;;;52.95;23.40;;;115.90;2176.00;;;;;;5054363;28;20470;-74
2021/01/14 04:09:38;;;;;;;53.90;22.60;;;116.00;2176.00;;;;;;5054156;28;20519;-73
2021/01/14 04:12:03;;;;;;;51.53;21.92;;;116.10;2176.00;;;;;;5070716;28;20128;-73
2021/01/14 04:14:30;;;;;;;58.85;23.95;;;116.10;2176.00;;;;;;5071996;28;20031;-73
2021/01/14 04:16:55;;;;;;;66.88;29.77;;;140.80;2176.00;;;;;;5071860;28;20520;-72
2021/01/14 04:19:21;;;;;;;48.13;20.52;;;141.00;2176.00;;;;;;5075791;28;20029;-70
2021/01/14 04:21:47;;;;;;;43.53;20.50;;;141.00;2176.00;;;;;;5075663;28;20374;-72
2021/01/14 04:24:12;;;;;;;46.65;21.35;;;140.90;2176.00;;;;;;5075768;28;20032;-72
2021/01/14 04:26:38;;;;;;;85.22;32.95;;;141.10;2176.00;;;;;;5075718;28;20017;-72
2021/01/14 04:29:04;;;;;;;80.93;32.67;;;141.40;2176.00;;;;;;5075669;28;20028;-67
2021/01/14 04:31:30;;;;;;;75.65;30.40;;;141.70;2176.00;;;;;;5075530;28;20032;-69
2021/01/14 04:33:56;;;;;;;75.45;30.10;;;166.40;2176.00;;;;;;5075313;28;20027;-70
2021/01/14 04:36:22;;;;;;;71.93;29.17;;;166.50;2176.00;;;;;;5075716;28;20110;-70
2021/01/14 04:38:48;;;;;;;66.50;26.85;;;166.60;2176.00;;;;;;5075391;28;20082;-70
2021/01/14 04:41:18;;;;;;;61.70;25.88;;;166.70;2176.00;;;;;;5075471;28;20424;-70
2021/01/14 04:43:43;;;;;;;59.90;25.63;;;166.80;2176.00;;;;;;5074433;28;20025;-69
2021/01/14 04:46:11;;;;;;;59.00;23.65;;;166.90;2176.00;;;;;;5074242;28;20103;-69
2021/01/14 04:48:39;;;;;;;61.17;24.20;;;166.80;2176.00;;;;;;5075356;28;20013;-70
2021/01/14 04:51:12;;;;;;;58.72;24.13;;;166.80;2176.00;;;;;;5075171;28;20100;-69
2021/01/14 04:53:40;;;;;;;57.30;23.67;;;166.70;2176.00;;;;;;5075773;28;20028;-69
2021/01/14 04:56:08;;;;;;;59.20;22.55;;;166.70;2176.00;;;;;;5075032;28;20050;-69
2021/01/14 04:58:38;;;;;;;72.15;27.13;;;166.60;2176.00;;;;;;5074949;28;20050;-70
2021/01/14 05:01:24;;;;;;;75.45;28.63;;;166.50;2176.00;;;;;;5074967;28;20063;-70
2021/01/14 05:03:54;;;;;;;62.53;23.88;;;166.50;2176.00;;;;;;5075152;28;20056;-69
2021/01/14 05:06:23;;;;;;;60.92;25.10;;;166.40;2176.00;;;;;;5074694;28;20024;-70
2021/01/14 05:08:51;;;;;;;130.80;45.70;;;166.40;2176.00;;;;;;5075039;28;20104;-69
2021/01/14 05:11:17;;;;;;;79.53;28.30;;;166.40;2176.00;;;;;;5074954;28;20336;-69
2021/01/14 05:13:46;;;;;;;65.13;28.50;;;166.40;2176.00;;;;;;5072760;28;20489;-70
2021/01/14 05:16:12;;;;;;;62.38;26.38;;;166.40;2176.00;;;;;;5074830;28;20028;-69
2021/01/14 05:18:38;;;;;;;69.45;28.13;;;166.50;2176.00;;;;;;5074960;28;20025;-70
2021/01/14 05:21:04;;;;;;;66.60;25.27;;;166.60;2176.00;;;;;;5074028;28;20102;-69
2021/01/14 05:23:32;;;;;;;99.43;31.25;;;166.60;2176.00;;;;;;5074539;28;20073;-69
2021/01/14 05:25:58;;;;;;;129.30;35.13;;;166.60;2176.00;;;;;;5073198;28;20024;-68
2021/01/14 05:28:28;;;;;;;66.13;24.90;;;166.50;2176.00;;;;;;5072932;28;20102;-69
2021/01/14 05:30:54;;;;;;;52.90;22.13;;;166.50;2176.00;;;;;;5073411;28;20024;-69
2021/01/14 05:33:23;;;;;;;54.03;21.85;;;166.40;2176.00;;;;;;5073296;28;20036;-70
2021/01/14 05:35:53;;;;;;;54.03;24.58;;;166.40;2176.00;;;;;;5073130;28;20036;-69
2021/01/14 05:38:29;;;;;;;56.80;23.40;;;141.70;2176.00;;;;;;5072842;28;20028;-70
2021/01/14 05:41:18;;;;;;;59.45;24.73;;;141.70;2176.00;;;;;;5072855;28;20524;-69
2021/01/14 05:44:09;;;;;;;59.47;23.45;;;141.60;2176.00;;;;;;5072950;28;20385;-70
2021/01/14 05:46:35;;;;;;;61.58;27.92;;;141.60;2176.00;;;;;;5070663;28;20158;-71
2021/01/14 05:49:02;;;;;;;71.13;27.13;;;141.50;2176.00;;;;;;5071453;28;20501;-69
2021/01/14 05:51:29;;;;;;;56.20;23.23;;;141.50;2176.00;;;;;;5072567;28;20037;-70
2021/01/14 05:53:56;;;;;;;46.17;21.27;;;141.50;2176.00;;;;;;5073028;28;20066;-69
2021/01/14 05:56:32;;;;;;;46.20;22.20;;;141.50;2176.00;;;;;;5072418;28;20031;-69
2021/01/14 05:58:59;;;;;;;46.03;19.88;;;141.40;2176.00;;;;;;5072518;28;20031;-69
2021/01/14 06:01:24;;;;;;;50.78;19.58;;;141.40;2176.00;;;;;;5071455;28;20037;-70
2021/01/14 06:03:50;;;;;;;45.67;19.10;;;141.40;2176.00;;;;;;5072569;28;20027;-68
2021/01/14 06:06:16;;;;;;;82.15;28.05;;;141.40;2176.00;;;;;;5072334;28;20037;-69
2021/01/14 06:08:42;;;;;;;50.72;21.27;;;141.40;2176.00;;;;;;5071127;28;20020;-69
2021/01/14 06:11:21;;;;;;;46.05;21.15;;;141.40;2176.00;;;;;;5072067;28;20028;-69
2021/01/14 06:13:47;;;;;;;53.00;21.57;;;141.40;2176.00;;;;;;5073636;28;20381;-69
2021/01/14 06:16:12;;;;;;;114.50;37.17;;;141.30;2176.00;;;;;;5073548;28;20027;-70
2021/01/14 06:18:38;;;;;;;84.97;31.77;;;141.20;2176.00;;;;;;5073551;28;20024;-69
2021/01/14 06:21:04;;;;;;;66.47;26.30;;;141.10;2176.00;;;;;;5072042;28;20041;-69
2021/01/14 06:23:43;;;;;;;48.72;21.05;;;141.00;2176.00;;;;;;5073307;28;20044;-70
2021/01/14 06:26:09;;;;;;;47.57;20.53;;;140.80;2176.00;;;;;;5073468;28;20021;-70
2021/01/14 06:28:35;;;;;;;45.72;17.83;;;116.00;2176.00;;;;;;5073101;28;20806;-70
2021/01/14 06:31:08;;;;;;;40.92;16.27;;;115.70;2176.00;;;;;;5073129;28;20538;-72
2021/01/14 06:33:34;;;;;;;49.13;22.92;;;115.40;2176.00;;;;;;5073120;28;20027;-69
2021/01/14 06:36:06;;;;;;;53.53;24.35;;;90.50;2176.00;;;;;;5073184;28;20032;-70
2021/01/14 06:38:48;;;;;;;45.35;22.88;;;90.30;2176.00;;;;;;5073331;28;20039;-69
2021/01/14 06:41:17;;;;;;;55.53;25.60;;;90.00;2176.00;;;;;;5065798;28;20029;-69
2021/01/14 06:43:43;;;;;;;39.90;19.33;;;89.70;2176.00;;;;;;5072961;28;20017;-71
2021/01/14 06:46:21;;;;;;;37.40;18.25;;;89.60;2201.60;;;;;;5072882;28;20048;-70
2021/01/14 06:49:02;;;;;;;42.53;18.27;;;89.60;2201.60;;;;;;5073071;28;20013;-70
2021/01/14 06:51:42;;;;;;;55.35;24.73;;;64.90;2201.60;;;;;;5066304;28;20032;-70
2021/01/14 06:54:11;;;;;;;56.57;26.73;;;64.90;2201.60;;;;;;5055776;28;20396;-71
2021/01/14 06:56:46;;;;;;;56.60;25.65;;;64.80;2201.60;;;;;;5072926;28;20024;-70
2021/01/14 06:59:15;;;;;;;47.25;21.75;;;64.70;2201.60;;;;;;5072889;28;20033;-70
2021/01/14 07:01:45;;;;;;;50.72;23.85;;;64.60;2201.60;;;;;;5071598;28;20454;-70
2021/01/14 07:04:20;;;;;;;44.63;20.73;;;64.50;2201.60;;;;;;5072618;28;20515;-70
2021/01/14 07:06:46;;;;;;;52.67;24.30;;;64.40;2201.60;;;;;;5071547;28;20469;-69
2021/01/14 07:09:13;;;;;;;46.17;23.38;;;64.40;2201.60;;;;;;5071570;28;20028;-69
2021/01/14 07:11:42;;;;;;;46.92;24.90;;;64.30;2201.60;;;;;;5072721;28;20029;-69
2021/01/14 07:14:15;;;;;;;47.22;23.00;;;64.20;2201.60;;;;;;5072667;28;20158;-69
2021/01/14 07:16:42;;;;;;;51.15;24.45;;;64.10;2201.60;;;;;;5071370;28;20381;-76
2021/01/14 07:19:08;;;;;;;59.03;26.75;;;64.20;2201.60;;;;;;5054856;28;20028;-69
2021/01/14 07:21:34;;;;;;;77.10;30.23;;;64.30;2201.60;;;;;;5072250;28;20090;-68
2021/01/14 07:24:09;;;;;;;77.85;33.15;;;64.30;2201.60;;;;;;5072435;28;20488;-70
2021/01/14 07:26:35;;;;;;;87.75;35.75;;;64.20;2201.60;;;;;;5072411;28;20478;-69
2021/01/14 07:29:04;;;;;;;82.10;34.10;;;64.10;2201.60;;;;;;5054547;28;20039;-69
2021/01/14 07:31:30;;;;;;;88.55;36.40;;;64.10;2201.60;;;;;;5071169;28;20052;-70
2021/01/14 07:33:55;;;;;;;86.45;34.15;;;64.00;2201.60;;;;;;5072174;28;20468;-69
2021/01/14 07:36:25;;;;;;;110.20;39.30;;;39.30;2201.60;;;;;;5072226;28;20028;-69
2021/01/14 07:38:54;;;;;;;137.13;50.50;;;39.30;2201.60;;;;;;5072259;28;20025;-69
2021/01/14 07:41:21;;;;;;;102.57;40.27;;;39.30;2201.60;;;;;;5072306;28;20032;-70
2021/01/14 07:43:47;;;;;;;88.28;38.92;;;39.30;2201.60;;;;;;5071034;28;20078;-70
2021/01/14 07:46:22;;;;;;;69.78;30.35;;;39.20;2201.60;;;;;;5072095;28;20017;-70
2021/01/14 07:48:49;;;;;;;85.20;35.53;;;39.10;2201.60;;;;;;5072331;28;20099;-70
2021/01/14 07:51:15;;;;;;;74.30;32.78;;;39.10;2201.60;;;;;;5070858;28;20012;-70
2021/01/14 07:53:41;;;;;;;67.47;29.70;;;39.00;2201.60;;;;;;5074126;28;20032;-70
2021/01/14 07:56:25;;;;;;;80.43;35.95;;;39.00;2201.60;;;;;;5074990;28;20067;-70
2021/01/14 07:58:55;;;;;;;91.80;37.45;;;38.90;2201.60;;;;;;5076332;28;20036;-70
2021/01/14 08:01:21;;;;;;;75.88;35.47;;;38.80;2201.60;;;;;;5076052;28;20035;-70
2021/01/14 08:03:47;;;;;;;93.13;40.15;;;38.70;2201.60;;;;;;5074887;28;20456;-69
2021/01/14 08:06:42;;;;;;;78.43;39.03;;;38.60;2201.60;;;;;;5076016;28;20028;-69
2021/01/14 08:09:11;;;;;;;88.60;42.28;;;38.50;2201.60;;;;;;5075781;28;20063;-70
2021/01/14 08:11:42;;;;;;;58.47;30.13;;;38.60;2201.60;;;;;;5076352;28;20028;-71
2021/01/14 08:14:17;;;;;;;54.08;25.17;;;38.70;2201.60;;;;;;5076000;28;20028;-69
2021/01/14 08:16:49;;;;;;;35.92;17.42;;;38.70;2201.60;;;;;;5076056;28;20020;-70
2021/01/14 08:19:34;;;;;;;51.47;27.25;;;64.00;2201.60;;;;;;5076012;28;20035;-70
2021/01/14 08:22:02;;;;;;;48.58;26.17;;;39.30;2201.60;;;;;;5075668;28;20027;-70
2021/01/14 08:24:38;;;;;;;36.60;20.17;;;39.10;2201.60;;;;;;5075718;28;20032;-71
2021/01/14 08:27:05;;;;;;;29.75;15.30;;;38.80;2201.60;;;;;;5074719;28;20123;-70
2021/01/14 08:29:50;;;;;;;30.40;16.55;;;38.90;2201.60;;;;;;5075395;28;20016;-70
2021/01/14 08:32:45;;;;;;;27.10;13.88;;;38.70;2201.60;;;;;;5075673;28;20056;-71
2021/01/14 08:35:17;;;;;;;62.42;28.35;;;38.50;2201.60;;;;;;5074616;28;20093;-70
2021/01/14 08:37:51;;;;;;;60.15;25.15;;;13.60;2201.60;;;;;;5071644;28;20035;-70
2021/01/14 08:40:22;;;;;;;35.55;14.55;;;13.30;2201.60;;;;;;5073738;28;20020;-71
2021/01/14 08:42:48;;;;;;;33.15;15.65;;;13.20;2201.60;;;;;;5074197;28;20031;-71
2021/01/14 08:45:20;;;;;;;48.03;20.13;;;13.10;2201.60;;;;;;5075151;28;20020;-70
2021/01/14 08:47:52;;;;;;;45.85;19.40;;;13.10;2201.60;;;;;;5074917;28;20100;-70
2021/01/14 08:50:43;;;;;;;50.30;19.67;;;13.00;2201.60;;;;;;5074229;28;20029;-70
2021/01/14 08:53:19;;;;;;;52.75;22.05;;;0.00;2201.60;;;;;;5074984;28;20028;-70
2021/01/14 08:56:09;;;;;;;32.90;14.90;;;0.20;2201.60;;;;;;5074372;28;20051;-70
2021/01/14 08:58:35;;;;;;;31.30;14.55;;;0.20;2201.60;;;;;;5073648;28;20013;-69
2021/01/14 09:01:00;;;;;;;31.60;16.55;;;0.30;2201.60;;;;;;5074262;28;20036;-70
2021/01/14 09:03:26;;;;;;;77.95;27.60;;;0.50;2201.60;;;;;;5073832;28;20016;-70
2021/01/14 09:05:52;;;;;;;40.90;19.30;;;0.40;2201.60;;;;;;5075104;28;20026;-69
2021/01/14 09:08:18;;;;;;;43.35;20.52;;;0.60;2201.60;;;;;;5074724;28;20032;-71
2021/01/14 09:10:47;;;;;;;43.78;22.83;;;0.60;2201.60;;;;;;5065634;28;20139;-70
2021/01/14 09:13:15;;;;;;;57.30;32.17;;;0.70;2201.60;;;;;;5074715;28;20095;-69
2021/01/14 09:15:40;;;;;;;79.97;41.63;;;0.90;2201.60;;;;;;5074812;28;20043;-69
2021/01/14 09:18:06;;;;;;;45.58;24.77;;;0.90;2201.60;;;;;;5074961;28;20048;-71
2021/01/14 09:20:31;;;;;;;67.07;30.33;;;0.80;2201.60;;;;;;5073207;28;20032;-71
2021/01/14 09:23:20;;;;;;;46.35;22.98;;;0.90;2201.60;;;;;;5074900;28;20099;-70
2021/01/14 09:25:47;;;;;;;40.85;19.95;;;0.80;2201.60;;;;;;5070818;28;20016;-71
2021/01/14 09:28:13;;;;;;;41.53;20.40;;;0.50;2201.60;;;;;;5074323;28;20023;-70
2021/01/14 09:30:39;;;;;;;42.63;21.33;;;0.40;2201.60;;;;;;5073190;28;20021;-70
2021/01/14 09:33:05;;;;;;;43.95;21.85;;;0.40;2201.60;;;;;;5054829;28;20017;-69
2021/01/14 09:35:31;;;;;;;42.58;22.17;;;0.60;2201.60;;;;;;5073933;28;20048;-69
2021/01/14 09:37:56;;;;;;;44.15;22.20;;;0.70;2201.60;;;;;;5073642;28;20102;-69
2021/01/14 09:40:22;;;;;;;50.03;26.25;;;0.60;2201.60;;;;;;5073884;28;20476;-71
2021/01/14 09:42:49;;;;;;;41.67;26.60;;;0.90;2201.60;;;;;;5073912;28;20546;-70
2021/01/14 09:45:16;;;;;;;63.13;36.90;;;0.90;2201.60;;;;;;5074694;28;20078;-67
2021/01/14 09:47:46;;;;;;;39.97;20.67;;;25.90;2176.00;;;;;;5075842;28;20077;-69
2021/01/14 09:50:13;;;;;;;51.50;24.42;;;26.30;2124.80;;;;;;5071983;28;20137;-69
2021/01/14 09:52:38;;;;;;;39.17;21.20;;;26.20;2124.80;;;;;;5073383;28;20024;-69
2021/01/14 09:55:06;;;;;;;34.58;18.88;;;26.40;2099.20;;;;;;5072206;28;20039;-70
2021/01/14 09:57:33;;;;;;;41.20;22.40;;;26.40;2073.60;;;;;;5070811;28;20047;-71
2021/01/14 09:59:58;;;;;;;29.40;15.65;;;26.10;2124.80;;;;;;5051956;28;20027;-70
2021/01/14 10:02:29;;;;;;;27.85;14.55;;;26.10;2099.20;;;;;;5071295;28;20115;-70
2021/01/14 10:04:57;;;;;;;43.42;21.48;;;26.00;2099.20;;;;;;5070883;28;20031;-70
2021/01/14 10:07:22;;;;;;;41.58;20.15;;;26.00;2124.80;;;;;;5049471;28;20036;-69
2021/01/14 10:09:54;;;;;;;32.58;17.60;;;26.00;2124.80;;;;;;5040273;28;20403;-69
2021/01/14 10:12:20;;;;;;;24.15;13.07;;;26.00;2099.20;;;;;;5071892;28;20024;-69
2021/01/14 10:14:46;;;;;;;15.95;9.07;;;26.00;2073.60;;;;;;5072123;28;20097;-69
2021/01/14 10:17:13;;;;;;;13.95;6.97;;;26.00;2048.00;;;;;;5072882;28;20470;-70
2021/01/14 10:19:40;;;;;;;14.75;8.30;;;26.00;2048.00;;;;;;5071857;28;20036;-72
2021/01/14 10:22:06;;;;;;;16.90;8.27;;;25.90;2124.80;;;;;;5071153;28;20054;-69
2021/01/14 10:24:32;;;;;;;21.27;12.18;;;25.90;2150.40;;;;;;5071027;28;20020;-67
2021/01/14 10:27:11;;;;;;;26.77;13.75;;;25.80;2201.60;;;;;;5071948;28;20491;-67
2021/01/14 10:29:39;;;;;;;20.63;11.40;;;25.60;2201.60;;;;;;5071588;28;20028;-65
2021/01/14 10:32:09;;;;;;;16.38;9.25;;;25.70;2201.60;;;;;;5071439;28;20048;-71
2021/01/14 10:34:38;;;;;;;19.85;11.57;;;25.70;2201.60;;;;;;5070278;28;20582;-71
2021/01/14 10:37:04;;;;;;;21.75;12.43;;;25.70;2201.60;;;;;;5071472;28;20103;-71
2021/01/14 10:39:39;;;;;;;23.48;13.77;;;25.80;2201.60;;;;;;5071008;28;20107;-71
2021/01/14 10:42:29;;;;;;;25.58;13.85;;;25.70;2201.60;;;;;;5071002;28;20021;-71
2021/01/14 10:44:57;;;;;;;23.75;12.65;;;0.90;2201.60;;;;;;5071326;28;20070;-70
2021/01/14 10:47:23;;;;;;;34.38;19.02;;;0.90;2201.60;;;;;;5070110;28;20488;-71
2021/01/14 10:49:49;;;;;;;24.58;12.65;;;25.60;2201.60;;;;;;5071060;28;20066;-71
2021/01/14 10:52:14;;;;;;;24.42;13.52;;;0.80;2201.60;;;;;;5037206;28;20021;-70
2021/01/14 10:54:40;;;;;;;24.55;12.93;;;0.90;2201.60;;;;;;5070349;28;20708;-71
2021/01/14 10:57:06;;;;;;;32.15;16.77;;;0.90;2201.60;;;;;;5071028;28;20408;-69
2021/01/14 10:59:33;;;;;;;37.80;19.20;;;25.60;2201.60;;;;;;5070775;28;20020;-70
2021/01/14 11:02:06;;;;;;;46.35;22.55;;;25.70;2201.60;;;;;;5069302;28;20021;-72
2021/01/14 11:04:32;;;;;;;46.15;23.25;;;25.70;2201.60;;;;;;5068966;28;20036;-70
2021/01/14 11:06:58;;;;;;;44.13;22.02;;;25.80;2201.60;;;;;;5069072;28;20476;-72
2021/01/14 11:09:24;;;;;;;55.55;28.40;;;26.00;2201.60;;;;;;5066436;28;20029;-72
2021/01/14 11:11:49;;;;;;;52.58;27.92;;;26.20;2201.60;;;;;;5070020;28;20024;-71
2021/01/14 11:14:16;;;;;;;43.95;23.23;;;26.50;2201.60;;;;;;5069670;28;20078;-71
2021/01/14 11:16:41;;;;;;;39.30;21.65;;;51.20;2227.20;;;;;;5037982;28;20041;-70
2021/01/14 11:19:08;;;;;;;40.55;20.20;;;26.50;2201.60;;;;;;5070691;28;20058;-70
2021/01/14 11:21:34;;;;;;;32.38;18.25;;;26.50;2201.60;;;;;;5072119;28;20090;-70
2021/01/14 11:24:00;;;;;;;40.05;21.83;;;26.30;2201.60;;;;;;5071432;28;20389;-75
2021/01/14 11:26:25;;;;;;;52.90;25.70;;;26.30;2201.60;;;;;;5063079;28;20526;-71
2021/01/14 11:28:51;;;;;;;42.53;21.50;;;26.20;2201.60;;;;;;5070592;28;20058;-71
2021/01/14 11:31:18;;;;;;;40.25;22.00;;;26.20;2201.60;;;;;;5071257;28;20059;-75
2021/01/14 11:33:44;;;;;;;43.47;25.27;;;26.00;2201.60;;;;;;5071525;28;20024;-72
2021/01/14 11:36:10;;;;;;;44.88;24.83;;;26.10;2201.60;;;;;;5108271;22;20060;-74
2021/01/14 11:38:36;;;;;;;34.22;20.58;;;26.20;2201.60;;;;;;5091734;28;20043;-74
2021/01/14 11:41:02;;;;;;;38.72;22.08;;;26.40;2201.60;;;;;;5072477;28;20107;-72
2021/01/14 11:43:27;;;;;;;44.72;24.55;;;26.30;2201.60;;;;;;5091834;28;20028;-72
2021/01/14 11:45:53;;;;;;;37.17;20.67;;;26.40;2201.60;;;;;;5089056;28;20016;-73
2021/01/14 11:48:19;;;;;;;32.88;18.27;;;26.30;2201.60;;;;;;5097218;28;20035;-73
2021/01/14 11:50:45;;;;;;;36.70;19.45;;;26.10;2201.60;;;;;;5091428;28;20807;-73
2021/01/14 11:53:10;;;;;;;34.80;18.45;;;26.30;2201.60;;;;;;5091742;28;20395;-74
2021/01/14 11:55:36;;;;;;;36.63;20.05;;;26.30;2201.60;;;;;;5091586;28;20081;-74
2021/01/14 11:58:02;;;;;;;34.25;17.20;;;26.40;2201.60;;;;;;5091485;28;20507;-73
2021/01/14 12:00:28;;;;;;;38.35;19.75;;;26.30;2201.60;;;;;;5090015;28;20016;-74
2021/01/14 12:02:53;;;;;;;35.60;19.83;;;26.30;2201.60;;;;;;5090027;28;20502;-70
2021/01/14 12:05:19;;;;;;;35.47;19.00;;;26.30;2201.60;;;;;;5089558;28;20032;-72
2021/01/14 12:07:45;;;;;;;49.50;23.83;;;26.20;2201.60;;;;;;5090055;28;20081;-73
2021/01/14 12:10:10;;;;;;;47.65;24.23;;;26.50;2201.60;;;;;;5091766;28;20024;-74